首页
METAR-TAF:

METAR-TAF

机场 :

Nain, 紐芬蘭-拉布拉多, 加拿大

纬度: 56-33N, 经度: 061-41W, 海拔: 6米

当前天气观测

该预报发布于3小时和2分钟前的23:00 UTC
风速11节,风向东北
温度 0°C
湿度 93%
气压 1014 hPa
能見度: 2.4公里
多云层高于900英尺
阴天层高于1700英尺
小雪

METAR: CYDP 202300Z 04011KT 1 1/2SM -SN BKN009 OVC017 M00/M01 A2995 RMK SN3SF2SC3 LAST STFD OBS/NXT 210800Z /S03/ SLP143

时间: 23:02 (02:02 UTC)

预报

该预报发布于6小时和22分钟前的19:40 UTC
预报有效从20日的 20点(UTC)到 20日的 23点(UTC)
风速15节,风向东北,有时为25节阵风
能見度: 1.6公里
层高于700英尺
小阵雪
短暂存在
从 20日的 20点(UTC)到 20日的 23点(UTC)
能見度: 9.7公里
阴天层高于3000英尺
小雪

TAF: CYDP 201940Z 2020/2023 05015G25KT 1SM -SHSN VV007 TEMPO 2020/2023 6SM -SN OVC030 RMK NXT FCST BY 211000Z

超过4000个机场的气象观测和天气预报(METAR&TAF报告)。

可查询的气象台以黄色和红色小点在地图上表示。

将鼠标移到小点上方,可查看气象台名称。

然后点击查看天气观测和预报。

如需切换地图:点击带黑十字的绿色按钮放大地图;点击带横线的绿色按钮缩小地图;或者点击绿色箭头查看邻近地区的地图。


METAR-TAF: